sensor_id;sensor_type;location;lat;lon;timestamp;P1;durP1;ratioP1;P2;durP2;ratioP2
68858;SDS011;55864;49.238;8.092;2023-02-01T00:01:09;9.93;;;3.53;;
68858;SDS011;55864;49.238;8.092;2023-02-01T00:03:10;8.20;;;3.23;;
68858;SDS011;55864;49.238;8.092;2023-02-01T00:05:12;9.27;;;3.43;;
68858;SDS011;55864;49.238;8.092;2023-02-01T00:07:13;8.25;;;3.50;;
68858;SDS011;55864;49.238;8.092;2023-02-01T00:09:14;8.47;;;3.53;;
68858;SDS011;55864;49.238;8.092;2023-02-01T00:11:15;9.27;;;3.93;;
68858;SDS011;55864;49.238;8.092;2023-02-01T00:13:15;8.67;;;3.70;;
68858;SDS011;55864;49.238;8.092;2023-02-01T00:15:16;8.83;;;3.93;;
68858;SDS011;55864;49.238;8.092;2023-02-01T00:17:16;7.27;;;3.40;;
68858;SDS011;55864;49.238;8.092;2023-02-01T00:19:17;8.83;;;4.00;;
68858;SDS011;55864;49.238;8.092;2023-02-01T00:21:19;8.83;;;3.50;;
68858;SDS011;55864;49.238;8.092;2023-02-01T00:23:20;7.05;;;3.30;;
68858;SDS011;55864;49.238;8.092;2023-02-01T00:25:21;8.63;;;3.37;;
68858;SDS011;55864;49.238;8.092;2023-02-01T00:27:21;9.47;;;3.70;;
68858;SDS011;55864;49.238;8.092;2023-02-01T00:29:22;7.93;;;3.43;;
68858;SDS011;55864;49.238;8.092;2023-02-01T00:31:23;9.20;;;3.83;;
68858;SDS011;55864;49.238;8.092;2023-02-01T00:33:23;8.10;;;3.47;;
68858;SDS011;55864;49.238;8.092;2023-02-01T00:35:24;11.23;;;3.70;;
68858;SDS011;55864;49.238;8.092;2023-02-01T00:37:26;7.67;;;3.60;;
68858;SDS011;55864;49.238;8.092;2023-02-01T00:39:26;8.00;;;3.27;;
68858;SDS011;55864;49.238;8.092;2023-02-01T00:41:27;7.17;;;3.10;;
68858;SDS011;55864;49.238;8.092;2023-02-01T00:43:27;7.90;;;3.00;;
68858;SDS011;55864;49.238;8.092;2023-02-01T00:45:28;7.93;;;3.40;;
68858;SDS011;55864;49.238;8.092;2023-02-01T00:47:28;7.30;;;2.93;;
68858;SDS011;55864;49.238;8.092;2023-02-01T00:49:29;6.70;;;2.97;;
68858;SDS011;55864;49.238;8.092;2023-02-01T00:51:30;7.40;;;2.90;;
68858;SDS011;55864;49.238;8.092;2023-02-01T00:53:32;6.90;;;2.97;;
68858;SDS011;55864;49.238;8.092;2023-02-01T00:55:33;6.50;;;3.00;;
68858;SDS011;55864;49.238;8.092;2023-02-01T00:57:34;7.00;;;2.97;;
68858;SDS011;55864;49.238;8.092;2023-02-01T00:59:34;7.23;;;2.80;;
68858;SDS011;55864;49.238;8.092;2023-02-01T01:01:35;8.47;;;2.80;;
68858;SDS011;55864;49.238;8.092;2023-02-01T01:03:36;10.87;;;3.27;;
68858;SDS011;55864;49.238;8.092;2023-02-01T01:05:39;6.38;;;2.85;;
68858;SDS011;55864;49.238;8.092;2023-02-01T01:07:39;8.33;;;3.10;;
68858;SDS011;55864;49.238;8.092;2023-02-01T01:09:41;8.00;;;3.40;;
68858;SDS011;55864;49.238;8.092;2023-02-01T01:11:42;8.67;;;3.33;;
68858;SDS011;55864;49.238;8.092;2023-02-01T01:13:42;9.63;;;3.77;;
68858;SDS011;55864;49.238;8.092;2023-02-01T01:15:43;6.77;;;2.90;;
68858;SDS011;55864;49.238;8.092;2023-02-01T01:17:44;6.73;;;3.13;;
68858;SDS011;55864;49.238;8.092;2023-02-01T01:19:44;8.73;;;4.00;;
68858;SDS011;55864;49.238;8.092;2023-02-01T01:21:45;10.37;;;3.43;;
68858;SDS011;55864;49.238;8.092;2023-02-01T01:23:46;8.77;;;3.50;;
68858;SDS011;55864;49.238;8.092;2023-02-01T01:25:48;9.30;;;3.37;;
68858;SDS011;55864;49.238;8.092;2023-02-01T01:27:49;8.63;;;3.70;;
68858;SDS011;55864;49.238;8.092;2023-02-01T01:29:49;8.33;;;3.60;;
68858;SDS011;55864;49.238;8.092;2023-02-01T01:31:50;8.60;;;3.73;;
68858;SDS011;55864;49.238;8.092;2023-02-01T01:33:52;8.07;;;3.30;;
68858;SDS011;55864;49.238;8.092;2023-02-01T01:35:53;9.23;;;3.70;;
68858;SDS011;55864;49.238;8.092;2023-02-01T01:37:54;9.30;;;3.10;;
68858;SDS011;55864;49.238;8.092;2023-02-01T01:39:54;8.53;;;3.20;;
68858;SDS011;55864;49.238;8.092;2023-02-01T01:41:56;9.53;;;3.70;;
68858;SDS011;55864;49.238;8.092;2023-02-01T01:44:02;9.93;;;3.43;;
68858;SDS011;55864;49.238;8.092;2023-02-01T01:46:04;8.07;;;3.73;;
68858;SDS011;55864;49.238;8.092;2023-02-01T01:48:05;10.53;;;3.30;;
68858;SDS011;55864;49.238;8.092;2023-02-01T01:50:09;7.77;;;3.37;;
68858;SDS011;55864;49.238;8.092;2023-02-01T01:52:14;7.73;;;3.33;;
68858;SDS011;55864;49.238;8.092;2023-02-01T01:54:16;8.57;;;3.70;;
68858;SDS011;55864;49.238;8.092;2023-02-01T01:58:24;8.07;;;3.33;;
68858;SDS011;55864;49.238;8.092;2023-02-01T02:00:26;8.93;;;3.80;;
68858;SDS011;55864;49.238;8.092;2023-02-01T02:02:28;9.37;;;3.60;;
68858;SDS011;55864;49.238;8.092;2023-02-01T02:04:29;7.80;;;3.73;;
68858;SDS011;55864;49.238;8.092;2023-02-01T02:06:34;8.37;;;3.67;;
68858;SDS011;55864;49.238;8.092;2023-02-01T02:08:38;7.77;;;3.47;;
68858;SDS011;55864;49.238;8.092;2023-02-01T02:10:41;9.30;;;3.72;;
68858;SDS011;55864;49.238;8.092;2023-02-01T02:12:43;9.20;;;3.60;;
68858;SDS011;55864;49.238;8.092;2023-02-01T02:14:47;9.40;;;4.25;;
68858;SDS011;55864;49.238;8.092;2023-02-01T02:16:58;9.40;;;4.10;;
68858;SDS011;55864;49.238;8.092;2023-02-01T02:19:22;10.30;;;3.63;;
68858;SDS011;55864;49.238;8.092;2023-02-01T02:21:50;12.50;;;4.73;;
68858;SDS011;55864;49.238;8.092;2023-02-01T02:26:54;10.63;;;4.20;;
68858;SDS011;55864;49.238;8.092;2023-02-01T02:29:28;7.50;;;3.58;;
68858;SDS011;55864;49.238;8.092;2023-02-01T02:32:04;9.30;;;3.93;;
68858;SDS011;55864;49.238;8.092;2023-02-01T02:34:25;7.93;;;3.97;;
68858;SDS011;55864;49.238;8.092;2023-02-01T02:36:35;8.57;;;3.93;;
68858;SDS011;55864;49.238;8.092;2023-02-01T02:38:44;8.47;;;3.90;;
68858;SDS011;55864;49.238;8.092;2023-02-01T02:40:52;9.33;;;4.10;;
68858;SDS011;55864;49.238;8.092;2023-02-01T02:43:02;9.13;;;4.00;;
68858;SDS011;55864;49.238;8.092;2023-02-01T02:45:12;9.50;;;4.07;;
68858;SDS011;55864;49.238;8.092;2023-02-01T02:47:21;10.07;;;4.20;;
68858;SDS011;55864;49.238;8.092;2023-02-01T02:49:40;10.97;;;4.60;;
68858;SDS011;55864;49.238;8.092;2023-02-01T02:51:50;10.37;;;4.80;;
68858;SDS011;55864;49.238;8.092;2023-02-01T02:53:57;12.43;;;5.30;;
68858;SDS011;55864;49.238;8.092;2023-02-01T02:56:00;15.13;;;5.83;;
68858;SDS011;55864;49.238;8.092;2023-02-01T02:58:04;12.05;;;5.28;;
68858;SDS011;55864;49.238;8.092;2023-02-01T03:00:08;14.65;;;5.70;;
68858;SDS011;55864;49.238;8.092;2023-02-01T03:02:11;13.13;;;5.10;;
68858;SDS011;55864;49.238;8.092;2023-02-01T03:04:12;11.23;;;5.33;;
68858;SDS011;55864;49.238;8.092;2023-02-01T03:06:16;13.20;;;5.70;;
68858;SDS011;55864;49.238;8.092;2023-02-01T03:10:22;13.07;;;5.33;;
68858;SDS011;55864;49.238;8.092;2023-02-01T03:12:27;13.83;;;5.30;;
68858;SDS011;55864;49.238;8.092;2023-02-01T03:14:28;11.20;;;5.00;;
68858;SDS011;55864;49.238;8.092;2023-02-01T03:16:32;13.60;;;5.43;;
68858;SDS011;55864;49.238;8.092;2023-02-01T03:18:36;15.07;;;5.32;;
68858;SDS011;55864;49.238;8.092;2023-02-01T03:20:43;12.30;;;4.97;;
68858;SDS011;55864;49.238;8.092;2023-02-01T03:22:48;12.97;;;4.90;;
68858;SDS011;55864;49.238;8.092;2023-02-01T03:24:51;13.57;;;5.33;;
68858;SDS011;55864;49.238;8.092;2023-02-01T03:26:55;10.43;;;4.90;;
68858;SDS011;55864;49.238;8.092;2023-02-01T03:28:59;12.38;;;4.97;;
68858;SDS011;55864;49.238;8.092;2023-02-01T03:31:06;10.87;;;4.77;;
68858;SDS011;55864;49.238;8.092;2023-02-01T03:33:07;15.13;;;5.23;;
68858;SDS011;55864;49.238;8.092;2023-02-01T03:35:13;11.87;;;5.37;;
68858;SDS011;55864;49.238;8.092;2023-02-01T03:37:15;12.77;;;5.70;;
68858;SDS011;55864;49.238;8.092;2023-02-01T03:39:23;14.27;;;5.00;;
68858;SDS011;55864;49.238;8.092;2023-02-01T03:41:34;14.07;;;5.23;;
68858;SDS011;55864;49.238;8.092;2023-02-01T03:43:39;14.90;;;5.27;;
68858;SDS011;55864;49.238;8.092;2023-02-01T03:45:49;11.80;;;4.90;;
68858;SDS011;55864;49.238;8.092;2023-02-01T03:47:53;15.83;;;5.50;;
68858;SDS011;55864;49.238;8.092;2023-02-01T03:49:59;13.73;;;5.17;;
68858;SDS011;55864;49.238;8.092;2023-02-01T03:52:03;9.87;;;4.10;;
68858;SDS011;55864;49.238;8.092;2023-02-01T03:56:12;13.50;;;4.63;;
68858;SDS011;55864;49.238;8.092;2023-02-01T03:58:14;11.10;;;4.70;;
68858;SDS011;55864;49.238;8.092;2023-02-01T04:00:17;15.13;;;4.47;;
68858;SDS011;55864;49.238;8.092;2023-02-01T04:04:20;10.23;;;4.00;;
68858;SDS011;55864;49.238;8.092;2023-02-01T04:06:24;11.40;;;4.28;;
68858;SDS011;55864;49.238;8.092;2023-02-01T04:08:25;10.57;;;4.60;;
68858;SDS011;55864;49.238;8.092;2023-02-01T04:10:26;11.93;;;4.73;;
68858;SDS011;55864;49.238;8.092;2023-02-01T04:12:28;13.03;;;4.63;;
68858;SDS011;55864;49.238;8.092;2023-02-01T04:14:29;14.20;;;5.13;;
68858;SDS011;55864;49.238;8.092;2023-02-01T04:16:29;11.97;;;5.10;;
68858;SDS011;55864;49.238;8.092;2023-02-01T04:18:30;14.23;;;4.60;;
68858;SDS011;55864;49.238;8.092;2023-02-01T04:20:31;13.00;;;4.60;;
68858;SDS011;55864;49.238;8.092;2023-02-01T04:22:32;14.20;;;4.97;;
68858;SDS011;55864;49.238;8.092;2023-02-01T04:24:33;10.33;;;4.33;;
68858;SDS011;55864;49.238;8.092;2023-02-01T04:26:34;11.90;;;4.77;;
68858;SDS011;55864;49.238;8.092;2023-02-01T04:28:36;9.33;;;4.23;;
68858;SDS011;55864;49.238;8.092;2023-02-01T04:30:36;11.10;;;3.37;;
68858;SDS011;55864;49.238;8.092;2023-02-01T04:32:37;8.80;;;3.80;;
68858;SDS011;55864;49.238;8.092;2023-02-01T04:34:38;7.40;;;3.23;;
68858;SDS011;55864;49.238;8.092;2023-02-01T04:36:38;9.00;;;3.17;;
68858;SDS011;55864;49.238;8.092;2023-02-01T04:38:41;6.20;;;2.83;;
68858;SDS011;55864;49.238;8.092;2023-02-01T04:40:46;5.05;;;2.10;;
68858;SDS011;55864;49.238;8.092;2023-02-01T04:42:47;8.45;;;2.53;;
68858;SDS011;55864;49.238;8.092;2023-02-01T04:44:49;6.63;;;2.20;;
68858;SDS011;55864;49.238;8.092;2023-02-01T04:46:50;6.20;;;2.30;;
68858;SDS011;55864;49.238;8.092;2023-02-01T04:48:50;7.47;;;2.60;;
68858;SDS011;55864;49.238;8.092;2023-02-01T04:50:51;7.17;;;2.90;;
68858;SDS011;55864;49.238;8.092;2023-02-01T04:52:52;7.70;;;2.80;;
68858;SDS011;55864;49.238;8.092;2023-02-01T04:54:52;8.90;;;3.27;;
68858;SDS011;55864;49.238;8.092;2023-02-01T04:56:53;7.90;;;3.23;;
68858;SDS011;55864;49.238;8.092;2023-02-01T04:58:53;9.40;;;3.63;;
68858;SDS011;55864;49.238;8.092;2023-02-01T05:00:55;7.93;;;2.93;;
68858;SDS011;55864;49.238;8.092;2023-02-01T05:02:56;8.77;;;4.10;;
68858;SDS011;55864;49.238;8.092;2023-02-01T05:04:56;13.10;;;4.00;;
68858;SDS011;55864;49.238;8.092;2023-02-01T05:06:57;10.87;;;4.03;;
68858;SDS011;55864;49.238;8.092;2023-02-01T05:08:57;12.33;;;4.50;;
68858;SDS011;55864;49.238;8.092;2023-02-01T05:10:58;9.33;;;4.20;;
68858;SDS011;55864;49.238;8.092;2023-02-01T05:12:58;11.77;;;4.47;;
68858;SDS011;55864;49.238;8.092;2023-02-01T05:14:59;12.17;;;4.63;;
68858;SDS011;55864;49.238;8.092;2023-02-01T05:17:01;12.33;;;4.53;;
68858;SDS011;55864;49.238;8.092;2023-02-01T05:19:01;11.03;;;4.37;;
68858;SDS011;55864;49.238;8.092;2023-02-01T05:21:02;12.20;;;4.13;;
68858;SDS011;55864;49.238;8.092;2023-02-01T05:23:03;8.57;;;3.93;;
68858;SDS011;55864;49.238;8.092;2023-02-01T05:25:03;9.67;;;4.10;;
68858;SDS011;55864;49.238;8.092;2023-02-01T05:27:04;10.03;;;3.53;;
68858;SDS011;55864;49.238;8.092;2023-02-01T05:29:05;9.93;;;3.97;;
68858;SDS011;55864;49.238;8.092;2023-02-01T05:31:09;12.87;;;5.13;;
68858;SDS011;55864;49.238;8.092;2023-02-01T05:33:11;12.93;;;4.28;;
68858;SDS011;55864;49.238;8.092;2023-02-01T05:35:12;13.00;;;4.67;;
68858;SDS011;55864;49.238;8.092;2023-02-01T05:37:12;13.77;;;4.53;;
68858;SDS011;55864;49.238;8.092;2023-02-01T05:39:13;12.97;;;4.77;;
68858;SDS011;55864;49.238;8.092;2023-02-01T05:41:13;11.27;;;4.50;;
68858;SDS011;55864;49.238;8.092;2023-02-01T05:43:14;12.60;;;3.73;;
68858;SDS011;55864;49.238;8.092;2023-02-01T05:45:14;11.60;;;3.80;;
68858;SDS011;55864;49.238;8.092;2023-02-01T05:47:15;8.67;;;3.57;;
68858;SDS011;55864;49.238;8.092;2023-02-01T05:49:17;8.47;;;3.23;;
68858;SDS011;55864;49.238;8.092;2023-02-01T05:51:17;8.57;;;3.13;;
68858;SDS011;55864;49.238;8.092;2023-02-01T05:53:18;9.53;;;3.37;;
68858;SDS011;55864;49.238;8.092;2023-02-01T05:55:18;7.43;;;2.80;;
68858;SDS011;55864;49.238;8.092;2023-02-01T05:57:19;7.63;;;2.80;;
68858;SDS011;55864;49.238;8.092;2023-02-01T05:59:20;8.67;;;2.60;;
68858;SDS011;55864;49.238;8.092;2023-02-01T06:01:20;17.17;;;3.30;;
68858;SDS011;55864;49.238;8.092;2023-02-01T06:03:21;8.17;;;3.30;;
68858;SDS011;55864;49.238;8.092;2023-02-01T06:05:23;9.03;;;3.10;;
68858;SDS011;55864;49.238;8.092;2023-02-01T06:07:23;7.73;;;2.90;;
68858;SDS011;55864;49.238;8.092;2023-02-01T06:09:24;7.90;;;2.53;;
68858;SDS011;55864;49.238;8.092;2023-02-01T06:11:24;8.63;;;2.50;;
68858;SDS011;55864;49.238;8.092;2023-02-01T06:13:25;8.40;;;3.60;;
68858;SDS011;55864;49.238;8.092;2023-02-01T06:15:26;7.97;;;2.73;;
68858;SDS011;55864;49.238;8.092;2023-02-01T06:17:26;9.53;;;2.87;;
68858;SDS011;55864;49.238;8.092;2023-02-01T06:19:27;8.47;;;3.07;;
68858;SDS011;55864;49.238;8.092;2023-02-01T06:21:29;10.20;;;2.80;;
68858;SDS011;55864;49.238;8.092;2023-02-01T06:23:30;9.70;;;2.40;;
68858;SDS011;55864;49.238;8.092;2023-02-01T06:25:31;8.40;;;2.60;;
68858;SDS011;55864;49.238;8.092;2023-02-01T06:27:31;7.43;;;2.10;;
68858;SDS011;55864;49.238;8.092;2023-02-01T06:29:32;11.93;;;3.30;;
68858;SDS011;55864;49.238;8.092;2023-02-01T06:31:33;8.00;;;2.20;;
68858;SDS011;55864;49.238;8.092;2023-02-01T06:33:33;4.97;;;1.70;;
68858;SDS011;55864;49.238;8.092;2023-02-01T06:35:35;5.50;;;1.50;;
68858;SDS011;55864;49.238;8.092;2023-02-01T06:37:37;9.20;;;1.63;;
68858;SDS011;55864;49.238;8.092;2023-02-01T06:39:38;11.43;;;2.13;;
68858;SDS011;55864;49.238;8.092;2023-02-01T06:41:38;9.40;;;2.13;;
68858;SDS011;55864;49.238;8.092;2023-02-01T06:43:39;7.77;;;2.70;;
68858;SDS011;55864;49.238;8.092;2023-02-01T06:45:39;9.83;;;3.30;;
68858;SDS011;55864;49.238;8.092;2023-02-01T06:47:40;10.80;;;3.50;;
68858;SDS011;55864;49.238;8.092;2023-02-01T06:49:40;11.13;;;4.50;;
68858;SDS011;55864;49.238;8.092;2023-02-01T06:51:41;18.93;;;4.37;;
68858;SDS011;55864;49.238;8.092;2023-02-01T06:53:43;19.00;;;6.60;;
68858;SDS011;55864;49.238;8.092;2023-02-01T06:55:50;15.17;;;4.83;;
68858;SDS011;55864;49.238;8.092;2023-02-01T06:57:55;18.37;;;7.03;;
68858;SDS011;55864;49.238;8.092;2023-02-01T06:59:55;15.60;;;4.97;;
68858;SDS011;55864;49.238;8.092;2023-02-01T07:01:56;20.00;;;6.60;;
68858;SDS011;55864;49.238;8.092;2023-02-01T07:03:57;14.40;;;5.57;;
68858;SDS011;55864;49.238;8.092;2023-02-01T07:05:58;21.50;;;8.03;;
68858;SDS011;55864;49.238;8.092;2023-02-01T07:07:58;11.40;;;5.83;;
68858;SDS011;55864;49.238;8.092;2023-02-01T07:10:00;18.13;;;6.20;;
68858;SDS011;55864;49.238;8.092;2023-02-01T07:12:01;16.07;;;6.90;;
68858;SDS011;55864;49.238;8.092;2023-02-01T07:14:01;20.67;;;6.13;;
68858;SDS011;55864;49.238;8.092;2023-02-01T07:16:02;15.23;;;4.93;;
68858;SDS011;55864;49.238;8.092;2023-02-01T07:18:04;14.57;;;4.30;;
68858;SDS011;55864;49.238;8.092;2023-02-01T07:20:05;18.07;;;5.33;;
68858;SDS011;55864;49.238;8.092;2023-02-01T07:22:07;14.83;;;4.47;;
68858;SDS011;55864;49.238;8.092;2023-02-01T07:24:08;12.07;;;4.20;;
68858;SDS011;55864;49.238;8.092;2023-02-01T07:26:10;12.40;;;3.90;;
68858;SDS011;55864;49.238;8.092;2023-02-01T07:28:12;11.77;;;3.83;;
68858;SDS011;55864;49.238;8.092;2023-02-01T07:30:13;13.50;;;4.10;;
68858;SDS011;55864;49.238;8.092;2023-02-01T07:32:13;9.13;;;4.13;;
68858;SDS011;55864;49.238;8.092;2023-02-01T07:34:14;12.93;;;3.93;;
68858;SDS011;55864;49.238;8.092;2023-02-01T07:36:15;14.90;;;3.80;;
68858;SDS011;55864;49.238;8.092;2023-02-01T07:38:16;12.47;;;3.80;;
68858;SDS011;55864;49.238;8.092;2023-02-01T07:40:17;12.43;;;4.20;;
68858;SDS011;55864;49.238;8.092;2023-02-01T07:42:19;13.10;;;4.10;;
68858;SDS011;55864;49.238;8.092;2023-02-01T07:44:20;13.17;;;3.77;;
68858;SDS011;55864;49.238;8.092;2023-02-01T07:46:21;15.47;;;3.70;;
68858;SDS011;55864;49.238;8.092;2023-02-01T07:48:22;13.00;;;4.13;;
68858;SDS011;55864;49.238;8.092;2023-02-01T07:50:23;14.13;;;4.33;;
68858;SDS011;55864;49.238;8.092;2023-02-01T07:52:24;12.07;;;4.43;;
68858;SDS011;55864;49.238;8.092;2023-02-01T07:54:27;14.05;;;4.88;;
68858;SDS011;55864;49.238;8.092;2023-02-01T07:56:27;14.53;;;4.97;;
68858;SDS011;55864;49.238;8.092;2023-02-01T07:58:29;16.57;;;4.40;;
68858;SDS011;55864;49.238;8.092;2023-02-01T08:00:30;19.70;;;4.03;;
68858;SDS011;55864;49.238;8.092;2023-02-01T08:02:31;16.70;;;4.03;;
68858;SDS011;55864;49.238;8.092;2023-02-01T08:04:31;16.03;;;4.53;;
68858;SDS011;55864;49.238;8.092;2023-02-01T08:06:32;14.57;;;4.40;;
68858;SDS011;55864;49.238;8.092;2023-02-01T08:08:33;14.80;;;4.30;;
68858;SDS011;55864;49.238;8.092;2023-02-01T08:10:34;16.60;;;4.73;;
68858;SDS011;55864;49.238;8.092;2023-02-01T08:12:35;17.83;;;4.23;;
68858;SDS011;55864;49.238;8.092;2023-02-01T08:14:37;12.37;;;4.23;;
68858;SDS011;55864;49.238;8.092;2023-02-01T08:16:37;16.17;;;5.07;;
68858;SDS011;55864;49.238;8.092;2023-02-01T08:18:38;15.83;;;4.60;;
68858;SDS011;55864;49.238;8.092;2023-02-01T08:20:39;16.03;;;4.50;;
68858;SDS011;55864;49.238;8.092;2023-02-01T08:22:40;14.40;;;4.80;;
68858;SDS011;55864;49.238;8.092;2023-02-01T08:24:40;19.17;;;3.90;;
68858;SDS011;55864;49.238;8.092;2023-02-01T08:26:41;14.53;;;4.80;;
68858;SDS011;55864;49.238;8.092;2023-02-01T08:28:42;16.13;;;4.40;;
68858;SDS011;55864;49.238;8.092;2023-02-01T08:30:45;15.43;;;4.80;;
68858;SDS011;55864;49.238;8.092;2023-02-01T08:32:46;28.07;;;10.03;;
68858;SDS011;55864;49.238;8.092;2023-02-01T08:34:46;25.67;;;8.27;;
68858;SDS011;55864;49.238;8.092;2023-02-01T08:36:47;17.13;;;5.03;;
68858;SDS011;55864;49.238;8.092;2023-02-01T08:38:47;14.30;;;4.03;;
68858;SDS011;55864;49.238;8.092;2023-02-01T08:40:48;15.10;;;4.00;;
68858;SDS011;55864;49.238;8.092;2023-02-01T08:42:49;13.23;;;3.93;;
68858;SDS011;55864;49.238;8.092;2023-02-01T08:44:51;22.60;;;4.28;;
68858;SDS011;55864;49.238;8.092;2023-02-01T08:46:53;10.97;;;3.17;;
68858;SDS011;55864;49.238;8.092;2023-02-01T08:48:54;16.67;;;3.50;;
68858;SDS011;55864;49.238;8.092;2023-02-01T08:50:55;15.50;;;3.80;;
68858;SDS011;55864;49.238;8.092;2023-02-01T08:52:55;12.97;;;3.87;;
68858;SDS011;55864;49.238;8.092;2023-02-01T08:54:56;18.77;;;3.60;;
68858;SDS011;55864;49.238;8.092;2023-02-01T08:56:56;17.87;;;4.00;;
68858;SDS011;55864;49.238;8.092;2023-02-01T08:58:57;20.07;;;3.67;;
68858;SDS011;55864;49.238;8.092;2023-02-01T09:01:01;14.07;;;3.13;;
68858;SDS011;55864;49.238;8.092;2023-02-01T09:03:04;18.57;;;3.53;;
68858;SDS011;55864;49.238;8.092;2023-02-01T09:05:05;15.80;;;3.43;;
68858;SDS011;55864;49.238;8.092;2023-02-01T09:07:06;12.53;;;3.13;;
68858;SDS011;55864;49.238;8.092;2023-02-01T09:09:07;15.17;;;3.00;;
68858;SDS011;55864;49.238;8.092;2023-02-01T09:11:08;15.60;;;3.20;;
68858;SDS011;55864;49.238;8.092;2023-02-01T09:13:12;14.77;;;2.90;;
68858;SDS011;55864;49.238;8.092;2023-02-01T09:15:12;15.90;;;3.97;;
68858;SDS011;55864;49.238;8.092;2023-02-01T09:17:13;18.83;;;3.37;;
68858;SDS011;55864;49.238;8.092;2023-02-01T09:19:15;13.20;;;3.10;;
68858;SDS011;55864;49.238;8.092;2023-02-01T09:21:15;19.17;;;3.07;;
68858;SDS011;55864;49.238;8.092;2023-02-01T09:23:16;15.77;;;2.80;;
68858;SDS011;55864;49.238;8.092;2023-02-01T09:25:17;14.43;;;3.03;;
68858;SDS011;55864;49.238;8.092;2023-02-01T09:27:17;19.67;;;3.70;;
68858;SDS011;55864;49.238;8.092;2023-02-01T09:29:18;15.40;;;3.00;;
68858;SDS011;55864;49.238;8.092;2023-02-01T09:31:18;17.40;;;2.80;;
68858;SDS011;55864;49.238;8.092;2023-02-01T09:33:19;15.40;;;3.10;;
68858;SDS011;55864;49.238;8.092;2023-02-01T09:35:21;20.17;;;4.47;;
68858;SDS011;55864;49.238;8.092;2023-02-01T09:37:21;11.87;;;2.90;;
68858;SDS011;55864;49.238;8.092;2023-02-01T09:39:22;12.30;;;2.97;;
68858;SDS011;55864;49.238;8.092;2023-02-01T09:41:26;17.67;;;3.87;;
68858;SDS011;55864;49.238;8.092;2023-02-01T09:43:37;13.60;;;2.90;;
68858;SDS011;55864;49.238;8.092;2023-02-01T09:45:45;16.87;;;3.20;;
68858;SDS011;55864;49.238;8.092;2023-02-01T09:47:53;20.10;;;2.97;;
68858;SDS011;55864;49.238;8.092;2023-02-01T09:49:59;20.57;;;3.13;;
68858;SDS011;55864;49.238;8.092;2023-02-01T09:52:04;12.17;;;3.17;;
68858;SDS011;55864;49.238;8.092;2023-02-01T09:54:09;20.13;;;3.43;;
68858;SDS011;55864;49.238;8.092;2023-02-01T09:56:13;15.70;;;2.80;;
68858;SDS011;55864;49.238;8.092;2023-02-01T09:58:19;16.53;;;2.70;;
68858;SDS011;55864;49.238;8.092;2023-02-01T10:00:24;16.50;;;3.10;;
68858;SDS011;55864;49.238;8.092;2023-02-01T10:04:28;13.23;;;2.57;;
68858;SDS011;55864;49.238;8.092;2023-02-01T10:06:41;14.60;;;3.13;;
68858;SDS011;55864;49.238;8.092;2023-02-01T10:09:07;15.10;;;2.50;;
68858;SDS011;55864;49.238;8.092;2023-02-01T10:11:26;17.10;;;3.27;;
68858;SDS011;55864;49.238;8.092;2023-02-01T10:13:34;23.83;;;3.40;;
68858;SDS011;55864;49.238;8.092;2023-02-01T10:15:51;16.55;;;2.92;;
68858;SDS011;55864;49.238;8.092;2023-02-01T10:18:03;14.95;;;2.50;;
68858;SDS011;55864;49.238;8.092;2023-02-01T10:20:28;17.77;;;3.50;;
68858;SDS011;55864;49.238;8.092;2023-02-01T10:22:50;19.90;;;4.10;;
68858;SDS011;55864;49.238;8.092;2023-02-01T10:25:02;15.43;;;3.57;;
68858;SDS011;55864;49.238;8.092;2023-02-01T10:27:16;22.80;;;3.40;;
68858;SDS011;55864;49.238;8.092;2023-02-01T10:29:20;17.00;;;3.00;;
68858;SDS011;55864;49.238;8.092;2023-02-01T10:31:24;14.50;;;2.93;;
68858;SDS011;55864;49.238;8.092;2023-02-01T10:37:34;12.07;;;2.20;;
68858;SDS011;55864;49.238;8.092;2023-02-01T10:39:35;14.57;;;2.60;;
68858;SDS011;55864;49.238;8.092;2023-02-01T10:41:38;18.27;;;3.23;;
68858;SDS011;55864;49.238;8.092;2023-02-01T10:43:40;21.40;;;3.43;;
68858;SDS011;55864;49.238;8.092;2023-02-01T10:45:42;15.20;;;2.83;;
68858;SDS011;55864;49.238;8.092;2023-02-01T10:47:43;14.80;;;2.70;;
68858;SDS011;55864;49.238;8.092;2023-02-01T10:49:46;12.63;;;2.80;;
68858;SDS011;55864;49.238;8.092;2023-02-01T10:51:53;15.40;;;2.50;;
68858;SDS011;55864;49.238;8.092;2023-02-01T10:53:58;14.40;;;2.43;;
68858;SDS011;55864;49.238;8.092;2023-02-01T10:56:05;15.37;;;2.50;;
68858;SDS011;55864;49.238;8.092;2023-02-01T10:58:17;15.17;;;2.73;;
68858;SDS011;55864;49.238;8.092;2023-02-01T11:00:19;18.60;;;2.50;;
68858;SDS011;55864;49.238;8.092;2023-02-01T11:02:23;12.27;;;3.17;;
68858;SDS011;55864;49.238;8.092;2023-02-01T11:04:26;12.90;;;3.00;;
68858;SDS011;55864;49.238;8.092;2023-02-01T11:06:30;18.60;;;2.97;;
68858;SDS011;55864;49.238;8.092;2023-02-01T11:10:36;15.00;;;2.97;;
68858;SDS011;55864;49.238;8.092;2023-02-01T11:12:38;11.43;;;2.27;;
68858;SDS011;55864;49.238;8.092;2023-02-01T11:14:40;11.60;;;3.03;;
68858;SDS011;55864;49.238;8.092;2023-02-01T11:16:41;13.83;;;3.13;;
68858;SDS011;55864;49.238;8.092;2023-02-01T11:18:52;15.13;;;3.23;;
68858;SDS011;55864;49.238;8.092;2023-02-01T11:20:53;17.27;;;3.20;;
68858;SDS011;55864;49.238;8.092;2023-02-01T11:22:55;18.07;;;3.93;;
68858;SDS011;55864;49.238;8.092;2023-02-01T11:24:56;11.47;;;3.17;;
68858;SDS011;55864;49.238;8.092;2023-02-01T11:27:01;17.43;;;3.50;;
68858;SDS011;55864;49.238;8.092;2023-02-01T11:29:05;12.70;;;2.70;;
68858;SDS011;55864;49.238;8.092;2023-02-01T11:31:13;13.93;;;3.10;;
68858;SDS011;55864;49.238;8.092;2023-02-01T11:33:15;13.00;;;3.30;;
68858;SDS011;55864;49.238;8.092;2023-02-01T11:35:19;16.43;;;3.37;;
68858;SDS011;55864;49.238;8.092;2023-02-01T11:37:21;16.13;;;3.43;;
68858;SDS011;55864;49.238;8.092;2023-02-01T11:39:26;12.90;;;3.10;;
68858;SDS011;55864;49.238;8.092;2023-02-01T11:41:29;15.13;;;2.63;;
68858;SDS011;55864;49.238;8.092;2023-02-01T11:43:29;16.00;;;2.73;;
68858;SDS011;55864;49.238;8.092;2023-02-01T11:45:30;10.87;;;2.30;;
68858;SDS011;55864;49.238;8.092;2023-02-01T11:47:38;15.33;;;3.10;;
68858;SDS011;55864;49.238;8.092;2023-02-01T11:49:39;22.33;;;3.80;;
68858;SDS011;55864;49.238;8.092;2023-02-01T11:51:43;18.07;;;3.73;;
68858;SDS011;55864;49.238;8.092;2023-02-01T11:53:58;15.05;;;3.03;;
68858;SDS011;55864;49.238;8.092;2023-02-01T11:56:12;17.43;;;2.97;;
68858;SDS011;55864;49.238;8.092;2023-02-01T12:01:04;19.17;;;3.83;;
68858;SDS011;55864;49.238;8.092;2023-02-01T12:03:31;13.37;;;2.80;;
68858;SDS011;55864;49.238;8.092;2023-02-01T12:05:50;24.50;;;5.07;;
68858;SDS011;55864;49.238;8.092;2023-02-01T12:08:11;24.53;;;7.50;;
68858;SDS011;55864;49.238;8.092;2023-02-01T12:10:25;83.50;;;23.40;;
68858;SDS011;55864;49.238;8.092;2023-02-01T12:12:34;38.40;;;10.43;;
68858;SDS011;55864;49.238;8.092;2023-02-01T12:14:50;29.23;;;8.50;;
68858;SDS011;55864;49.238;8.092;2023-02-01T12:17:12;36.07;;;10.90;;
68858;SDS011;55864;49.238;8.092;2023-02-01T12:19:42;17.60;;;3.73;;
68858;SDS011;55864;49.238;8.092;2023-02-01T12:22:05;16.50;;;3.63;;
68858;SDS011;55864;49.238;8.092;2023-02-01T12:24:27;21.47;;;3.93;;
68858;SDS011;55864;49.238;8.092;2023-02-01T12:26:50;18.47;;;3.57;;
68858;SDS011;55864;49.238;8.092;2023-02-01T12:29:04;16.52;;;2.70;;
68858;SDS011;55864;49.238;8.092;2023-02-01T12:31:21;15.50;;;2.60;;
68858;SDS011;55864;49.238;8.092;2023-02-01T12:33:36;14.87;;;3.00;;
68858;SDS011;55864;49.238;8.092;2023-02-01T12:35:57;25.33;;;3.87;;
68858;SDS011;55864;49.238;8.092;2023-02-01T12:38:12;21.97;;;3.20;;
68858;SDS011;55864;49.238;8.092;2023-02-01T12:40:28;18.50;;;4.37;;